To NAV CANADA Home Page Login to a new session Search on AWWS site Feedback and Comments Disclaimer Vers la page française équivalente Tips FAQ What's new on the site To the Forecasts and Observations / NOTAM section To "File a Flight Plan" website Publications and other links Update of the User's profile FIC Telephone Numbers My Weather Data Folder Route Weather Data Regional Weather Data Local Weather Data To the Forecasts and Observations / NOTAM section
Request Generated 03/28/2017 at 02:23:19 UTC . Weather information available at that time is displayed.

METAR/TAF

LA RONGE (BARBER FIELD)/SK    

METAR CYVC 280200Z 08008KT 15SM BKN190 00/M06 A3012 RMK AC7 SLP231=
METAR CYVC 280100Z 06006KT 15SM BKN200 00/M05 A3012 RMK CI7 SLP230=
METAR CYVC 280000Z 05006KT 15SM BKN200 01/M04 A3011 RMK CI7 SLP228=

TAF CYVC 280038Z 2801/2813 08008KT P6SM SCT250
RMK NXT FCST BY 280700Z=
Your time UTC time
Weather data provided by Environment Canada and NAV CANADA